Time;durP1;ratioP1;P1;durP2;ratioP2;P2;SDS_P1;SDS_P2;PMS_P1;PMS_P2;Temp;Humidity;BMP_temperature;BMP_pressure;BME280_temperature;BME280_humidity;BME280_pressure;Samples;Min_cycle;Max_cycle;Signal;HPM_P1;HPM_P2
2022/02/03 00:00:37;;;;;;;7.88;2.95;;;6.80;99.90;;;;;;5133317;27;20570;-63
2022/02/03 00:03:13;;;;;;;11.10;3.38;;;6.80;99.90;;;;;;5134134;27;20668;-64
2022/02/03 00:05:49;;;;;;;9.25;3.80;;;6.80;99.90;;;;;;5134281;27;20246;-63
2022/02/03 00:08:31;;;;;;;7.10;2.97;;;6.80;99.90;;;;;;5134767;27;20607;-64
2022/02/03 00:22:14;;;;;;;6.45;2.80;;;6.70;99.90;;;;;;5134451;27;20229;-63
2022/02/03 00:24:58;;;;;;;7.80;3.40;;;6.70;99.90;;;;;;5128665;27;20223;-63
2022/02/03 00:27:41;;;;;;;10.73;2.75;;;6.70;99.90;;;;;;5134623;27;20229;-63
2022/02/03 00:30:12;;;;;;;6.70;2.83;;;6.80;99.90;;;;;;5135104;27;20375;-64
2022/02/03 00:33:07;;;;;;;6.80;3.30;;;6.70;99.90;;;;;;5134532;27;20986;-63
2022/02/03 00:35:52;;;;;;;6.45;3.60;;;6.80;99.90;;;;;;5124963;27;20385;-63
2022/02/03 00:38:44;;;;;;;6.55;2.70;;;6.70;99.90;;;;;;5134146;27;20227;-63
2022/02/03 00:49:31;;;;;;;12.43;3.05;;;6.60;99.90;;;;;;5132481;27;20891;-63
2022/02/03 00:51:59;;;;;;;7.40;2.85;;;6.60;99.90;;;;;;5134065;27;20313;-63
2022/02/03 00:54:31;;;;;;;7.60;2.97;;;6.60;99.90;;;;;;5133626;27;20226;-63
2022/02/03 00:57:02;;;;;;;11.77;2.85;;;6.60;99.90;;;;;;5133733;27;20229;-63
2022/02/03 00:59:34;;;;;;;8.95;2.92;;;6.60;99.90;;;;;;5133902;27;20228;-62
2022/02/03 01:02:05;;;;;;;6.60;3.05;;;6.60;99.90;;;;;;5133651;27;20234;-65
2022/02/03 01:04:32;;;;;;;7.03;3.17;;;6.60;99.90;;;;;;5120502;27;20223;-63
2022/02/03 01:06:59;;;;;;;7.45;2.95;;;6.50;99.90;;;;;;5134040;27;20214;-63
2022/02/03 01:09:30;;;;;;;14.38;4.10;;;6.50;99.90;;;;;;5133744;27;20605;-64
2022/02/03 01:12:06;;;;;;;9.27;3.03;;;6.50;99.90;;;;;;5133460;27;20678;-63
2022/02/03 01:14:43;;;;;;;8.35;3.35;;;6.50;99.90;;;;;;5133930;27;20287;-64
2022/02/03 01:17:24;;;;;;;9.60;3.20;;;6.50;99.90;;;;;;5133467;27;20581;-64
2022/02/03 01:34:11;;;;;;;10.15;3.15;;;6.40;99.90;;;;;;5070832;28;20277;-63
2022/02/03 01:36:58;;;;;;;7.25;2.40;;;6.40;99.90;;;;;;5107911;27;20656;-63
2022/02/03 01:45:16;;;;;;;10.20;3.42;;;6.40;99.90;;;;;;5132805;27;20710;-63
2022/02/03 01:47:54;;;;;;;8.18;3.78;;;6.50;99.90;;;;;;5133210;27;20214;-64
2022/02/03 01:53:09;;;;;;;6.15;3.33;;;6.50;99.90;;;;;;5122079;27;20235;-64
2022/02/03 01:55:40;;;;;;;4.88;3.47;;;6.60;99.90;;;;;;5132831;27;20786;-64
2022/02/03 01:58:13;;;;;;;10.25;3.10;;;6.70;99.90;;;;;;5132707;27;20228;-64
2022/02/03 02:00:42;;;;;;;11.48;3.20;;;6.70;99.90;;;;;;5132820;27;20241;-64
2022/02/03 02:03:19;;;;;;;7.35;3.65;;;6.70;99.90;;;;;;5132844;27;20239;-64
2022/02/03 02:06:08;;;;;;;12.50;3.75;;;6.80;99.90;;;;;;5119935;27;21387;-64
2022/02/03 02:08:43;;;;;;;16.13;4.68;;;6.90;99.90;;;;;;5132503;27;20238;-64
2022/02/03 02:11:31;;;;;;;7.22;2.88;;;6.90;99.90;;;;;;5133338;27;20230;-63
2022/02/03 02:14:17;;;;;;;10.00;4.35;;;6.90;99.90;;;;;;5132188;27;20238;-64
2022/02/03 02:17:25;;;;;;;8.52;2.20;;;6.90;99.90;;;;;;5133188;27;20229;-63
2022/02/03 02:20:01;;;;;;;9.95;3.50;;;6.90;99.90;;;;;;5127709;27;20675;-64
2022/02/03 02:37:10;;;;;;;6.85;2.38;;;7.00;99.90;;;;;;5132226;27;20319;-63
2022/02/03 02:39:54;;;;;;;13.27;3.38;;;7.00;99.90;;;;;;5132785;27;20271;-63
2022/02/03 02:42:35;;;;;;;9.10;3.15;;;7.00;99.90;;;;;;5132135;27;20269;-63
2022/02/03 02:45:09;;;;;;;11.90;3.75;;;7.00;99.90;;;;;;5123139;27;20290;-63
2022/02/03 02:47:53;;;;;;;7.60;3.20;;;7.00;99.90;;;;;;5132145;27;20497;-63
2022/02/03 02:50:28;;;;;;;12.40;3.75;;;7.00;99.90;;;;;;5132014;27;20622;-63
2022/02/03 02:53:11;;;;;;;9.05;3.28;;;7.00;99.90;;;;;;5120197;27;20213;-64
2022/02/03 02:55:53;;;;;;;13.50;3.65;;;7.00;99.90;;;;;;5131615;27;20228;-64
2022/02/03 02:58:45;;;;;;;11.82;3.15;;;7.00;99.90;;;;;;5132240;27;20229;-63
2022/02/03 03:29:29;;;;;;;11.65;3.50;;;7.30;99.90;;;;;;5135860;27;20217;-62
2022/02/03 03:35:07;;;;;;;8.65;3.17;;;7.30;99.90;;;;;;5098188;27;20218;-62
2022/02/03 03:37:42;;;;;;;15.77;2.85;;;7.40;99.90;;;;;;5135766;27;20222;-63
2022/02/03 03:40:10;;;;;;;8.80;2.95;;;7.40;99.90;;;;;;5134822;27;20221;-63
2022/02/03 03:42:40;;;;;;;11.25;4.75;;;7.40;99.90;;;;;;5135783;27;20215;-63
2022/02/03 03:45:09;;;;;;;10.50;4.22;;;7.40;99.90;;;;;;5134852;27;20239;-62
2022/02/03 03:47:39;;;;;;;12.25;4.70;;;7.40;99.90;;;;;;5135601;27;20222;-62
2022/02/03 03:50:14;;;;;;;9.88;5.35;;;7.40;99.90;;;;;;5134942;27;20235;-63
2022/02/03 03:52:56;;;;;;;11.45;4.43;;;7.40;99.90;;;;;;5135635;27;20407;-63
2022/02/03 03:55:40;;;;;;;11.82;3.75;;;7.40;99.90;;;;;;5135243;27;21130;-62
2022/02/03 04:28:52;;;;;;;11.43;4.10;;;7.40;99.90;;;;;;5109733;27;20231;-62
2022/02/03 04:45:17;;;;;;;11.63;3.70;;;7.50;99.90;;;;;;5069101;27;20232;-63
2022/02/03 04:51:29;;;;;;;8.55;2.50;;;7.40;99.90;;;;;;5122443;27;21068;-63
2022/02/03 05:00:44;;;;;;;9.90;3.45;;;7.30;99.90;;;;;;5096674;27;20226;-63
2022/02/03 05:03:59;;;;;;;12.77;5.82;;;7.30;99.90;;;;;;5093334;28;20235;-63
2022/02/03 05:06:52;;;;;;;15.00;5.22;;;7.30;99.90;;;;;;5089147;28;20223;-64
2022/02/03 05:09:54;;;;;;;17.48;9.02;;;7.20;99.90;;;;;;5093159;28;20243;-64
2022/02/03 05:12:45;;;;;;;16.85;7.63;;;7.10;99.90;;;;;;5083950;28;21022;-62
2022/02/03 05:15:43;;;;;;;15.73;8.80;;;7.10;99.90;;;;;;5081055;28;20724;-63
2022/02/03 05:18:44;;;;;;;8.38;5.40;;;7.10;99.90;;;;;;5091997;28;20241;-63
2022/02/03 05:24:59;;;;;;;15.05;9.35;;;7.10;99.90;;;;;;5090409;28;21077;-63
2022/02/03 05:45:38;;;;;;;6.47;3.53;;;7.00;99.90;;;;;;5064676;28;20666;-63
2022/02/03 06:02:35;;;;;;;11.43;6.15;;;7.00;99.90;;;;;;5105211;27;20265;-64
2022/02/03 06:05:08;;;;;;;8.43;3.90;;;7.00;99.90;;;;;;5132996;27;20310;-62
2022/02/03 06:07:53;;;;;;;10.30;4.18;;;7.00;99.90;;;;;;5133240;27;20283;-64
2022/02/03 06:13:10;;;;;;;11.88;3.47;;;7.00;99.90;;;;;;5132855;27;20295;-64
2022/02/03 06:15:43;;;;;;;7.57;2.55;;;7.00;99.90;;;;;;5133319;27;20224;-64
2022/02/03 06:23:50;;;;;;;8.15;2.70;;;7.00;99.90;;;;;;5123953;27;20228;-64
2022/02/03 06:29:05;;;;;;;6.90;3.88;;;7.10;99.90;;;;;;5131977;27;20424;-64
2022/02/03 06:31:35;;;;;;;6.20;3.22;;;7.10;99.90;;;;;;5132091;27;20556;-64
2022/02/03 06:34:02;;;;;;;4.53;2.80;;;7.10;99.90;;;;;;5131049;27;20218;-64
2022/02/03 06:36:29;;;;;;;15.73;3.38;;;7.10;99.90;;;;;;5131109;27;20214;-64
2022/02/03 06:38:56;;;;;;;10.70;3.58;;;7.20;99.90;;;;;;5131150;27;20618;-65
2022/02/03 06:41:23;;;;;;;10.18;3.20;;;7.20;99.90;;;;;;5129461;27;20218;-64
2022/02/03 06:43:50;;;;;;;6.78;2.53;;;7.20;99.90;;;;;;5131405;27;20222;-64
2022/02/03 06:46:18;;;;;;;6.80;3.40;;;7.20;99.90;;;;;;5133406;27;20703;-64
2022/02/03 06:48:53;;;;;;;12.40;2.85;;;7.20;99.90;;;;;;5134595;27;20301;-64
2022/02/03 06:51:27;;;;;;;9.50;3.80;;;7.20;99.90;;;;;;5133871;27;20318;-64
2022/02/03 06:54:00;;;;;;;7.72;2.72;;;7.10;99.90;;;;;;5134599;27;20293;-64
2022/02/03 06:56:34;;;;;;;8.32;2.85;;;7.10;99.90;;;;;;5133054;27;21053;-64
2022/02/03 06:59:03;;;;;;;10.85;3.05;;;7.10;99.90;;;;;;5134608;27;20222;-64
2022/02/03 07:01:36;;;;;;;8.48;3.50;;;7.10;99.90;;;;;;5135833;27;20236;-64
2022/02/03 07:04:12;;;;;;;8.40;3.58;;;7.10;99.90;;;;;;5136470;27;20230;-64
2022/02/03 07:06:38;;;;;;;9.00;2.92;;;7.00;99.90;;;;;;5136528;27;20218;-64
2022/02/03 07:09:08;;;;;;;8.57;3.92;;;7.10;99.90;;;;;;5136504;27;20227;-64
2022/02/03 07:11:37;;;;;;;9.65;3.38;;;7.10;99.90;;;;;;5136019;27;20313;-64
2022/02/03 07:14:05;;;;;;;12.85;4.97;;;7.10;99.90;;;;;;5122952;27;20229;-64
2022/02/03 07:16:35;;;;;;;13.02;3.65;;;7.10;99.90;;;;;;5135984;27;20312;-64
2022/02/03 07:19:02;;;;;;;7.35;4.75;;;7.10;99.90;;;;;;5135922;27;20215;-63
2022/02/03 07:21:29;;;;;;;16.85;5.22;;;7.10;99.90;;;;;;5135476;27;20224;-64
2022/02/03 07:23:56;;;;;;;11.00;5.60;;;7.20;99.90;;;;;;5136143;27;20668;-64
2022/02/03 07:26:23;;;;;;;9.82;5.40;;;7.20;99.90;;;;;;5135863;27;20218;-64
2022/02/03 07:28:50;;;;;;;11.13;4.85;;;7.20;99.90;;;;;;5130742;27;20617;-65
2022/02/03 07:31:17;;;;;;;6.78;4.90;;;7.20;99.90;;;;;;5135820;27;20226;-65
2022/02/03 07:33:45;;;;;;;17.05;5.95;;;7.20;99.90;;;;;;5135993;27;20214;-65
2022/02/03 07:36:12;;;;;;;11.95;5.25;;;7.10;99.90;;;;;;5136033;27;20232;-64
2022/02/03 07:38:39;;;;;;;14.52;4.82;;;7.10;99.90;;;;;;5135703;27;20238;-64
2022/02/03 07:41:06;;;;;;;13.02;5.10;;;7.10;99.90;;;;;;5125032;27;20230;-64
2022/02/03 07:43:33;;;;;;;12.60;5.22;;;7.10;99.90;;;;;;5135539;27;20574;-65
2022/02/03 07:46:00;;;;;;;13.93;5.78;;;7.10;99.90;;;;;;5135840;27;20222;-65
2022/02/03 07:48:27;;;;;;;15.15;7.25;;;7.10;99.90;;;;;;5135547;27;20242;-63
2022/02/03 07:50:55;;;;;;;15.27;7.18;;;7.10;99.90;;;;;;5135667;27;20222;-64
2022/02/03 07:53:22;;;;;;;16.35;7.85;;;7.20;99.90;;;;;;5135824;27;20218;-64
2022/02/03 07:55:49;;;;;;;12.25;8.15;;;7.20;99.90;;;;;;5135699;27;20540;-64
2022/02/03 07:58:16;;;;;;;11.75;6.70;;;7.20;99.90;;;;;;5136066;27;20559;-64
2022/02/03 08:00:43;;;;;;;13.80;6.28;;;7.20;99.90;;;;;;5135496;27;20218;-64
2022/02/03 08:03:14;;;;;;;10.68;6.35;;;7.20;99.90;;;;;;5136024;27;20286;-65
2022/02/03 08:05:43;;;;;;;12.15;4.78;;;7.20;99.90;;;;;;5135918;27;20221;-64
2022/02/03 08:08:19;;;;;;;16.55;5.70;;;7.30;99.90;;;;;;5143067;27;20222;-64
2022/02/03 08:10:49;;;;;;;19.48;5.35;;;7.30;99.90;;;;;;5130892;27;20321;-64
2022/02/03 08:13:21;;;;;;;11.48;4.40;;;7.30;99.90;;;;;;5135755;27;20225;-65
2022/02/03 08:15:51;;;;;;;9.75;4.40;;;7.40;99.90;;;;;;5145499;27;20214;-64
2022/02/03 08:18:20;;;;;;;11.60;4.75;;;7.30;99.90;;;;;;5135684;27;20253;-64
2022/02/03 08:20:52;;;;;;;11.70;3.88;;;7.40;99.90;;;;;;5134981;27;20226;-65
2022/02/03 08:26:13;;;;;;;19.50;10.75;;;7.50;99.90;;;;;;5131483;27;20279;-64
2022/02/03 08:28:57;;;;;;;26.05;15.35;;;7.50;99.90;;;;;;5135679;27;20214;-66
2022/02/03 08:31:27;;;;;;;23.85;9.05;;;7.50;99.90;;;;;;5135261;27;20400;-64
2022/02/03 08:33:55;;;;;;;16.05;6.35;;;7.60;99.90;;;;;;5135601;27;20280;-64
2022/02/03 08:36:23;;;;;;;11.93;6.00;;;7.70;99.90;;;;;;5135083;27;20244;-64
2022/02/03 08:38:55;;;;;;;11.38;6.55;;;7.70;99.90;;;;;;5135486;27;20274;-63
2022/02/03 08:41:25;;;;;;;12.32;6.30;;;7.70;99.90;;;;;;5135032;27;20231;-64
2022/02/03 08:43:52;;;;;;;19.02;8.35;;;7.80;99.90;;;;;;5135406;27;20218;-64
2022/02/03 08:46:19;;;;;;;18.92;7.85;;;7.80;99.90;;;;;;5134827;27;20226;-64
2022/02/03 08:48:46;;;;;;;13.68;7.30;;;7.90;99.90;;;;;;5135218;27;20220;-64
2022/02/03 08:51:13;;;;;;;13.43;7.40;;;7.90;99.90;;;;;;5134620;27;20237;-65
2022/02/03 08:53:44;;;;;;;15.65;8.43;;;7.90;99.90;;;;;;5135178;27;20233;-64
2022/02/03 08:56:29;;;;;;;14.07;7.40;;;8.00;99.90;;;;;;5134682;27;20230;-64
2022/02/03 09:40:43;;;;;;;11.73;5.40;;;8.60;99.90;;;;;;5123207;27;20214;-64
2022/02/03 09:51:53;;;;;;;9.75;4.82;;;8.60;99.90;;;;;;5134184;27;20233;-64
2022/02/03 09:57:32;;;;;;;9.45;4.90;;;8.70;99.90;;;;;;5134186;27;20238;-64
2022/02/03 10:00:28;;;;;;;10.10;4.20;;;8.70;99.90;;;;;;5133942;27;20226;-64
2022/02/03 10:02:59;;;;;;;10.80;5.32;;;8.80;99.90;;;;;;5133457;27;20230;-63
2022/02/03 10:05:33;;;;;;;10.40;4.50;;;8.80;99.90;;;;;;5134049;27;20222;-64
2022/02/03 10:08:00;;;;;;;8.98;4.55;;;8.90;99.90;;;;;;5133646;27;20593;-63
2022/02/03 10:10:30;;;;;;;8.77;5.15;;;8.90;99.90;;;;;;5133931;27;20621;-64
2022/02/03 10:12:57;;;;;;;7.43;5.13;;;9.00;99.90;;;;;;5133666;27;20214;-63
2022/02/03 10:15:24;;;;;;;13.90;4.80;;;9.00;99.90;;;;;;5133955;27;20218;-65
2022/02/03 10:17:56;;;;;;;14.05;6.90;;;9.00;99.90;;;;;;5135974;27;20232;-64
2022/02/03 10:20:28;;;;;;;11.13;5.40;;;9.00;99.90;;;;;;5137871;27;20249;-64
2022/02/03 10:22:57;;;;;;;12.18;5.65;;;9.10;99.90;;;;;;5138001;27;20711;-64
2022/02/03 10:25:26;;;;;;;12.02;5.90;;;9.00;99.90;;;;;;5137849;27;20536;-64
2022/02/03 10:28:00;;;;;;;8.38;5.28;;;9.00;99.90;;;;;;5137968;27;20224;-64
2022/02/03 10:30:36;;;;;;;17.90;6.38;;;9.00;99.90;;;;;;5137708;27;20308;-64
2022/02/03 10:33:03;;;;;;;10.60;6.65;;;9.00;99.90;;;;;;5137941;27;20225;-63
2022/02/03 10:35:37;;;;;;;14.98;7.15;;;9.00;99.90;;;;;;5137736;27;20736;-65
2022/02/03 10:38:45;;;;;;;14.02;5.80;;;9.00;99.90;;;;;;5137960;27;20229;-63
2022/02/03 10:50:10;;;;;;;15.73;8.25;;;9.20;99.90;;;;;;5137440;27;20301;-63
2022/02/03 11:03:58;;;;;;;12.65;9.00;;;9.10;99.90;;;;;;5137175;27;21035;-63
2022/02/03 11:06:31;;;;;;;11.30;7.50;;;9.10;99.90;;;;;;5136861;27;20254;-64
2022/02/03 11:09:11;;;;;;;12.45;6.18;;;9.10;99.90;;;;;;5137323;27;20219;-64
2022/02/03 11:11:44;;;;;;;15.73;8.43;;;9.00;99.90;;;;;;5136839;27;20238;-64
2022/02/03 11:14:11;;;;;;;23.02;14.40;;;9.00;99.90;;;;;;5137194;27;20226;-64
2022/02/03 11:16:41;;;;;;;14.18;10.10;;;8.90;99.90;;;;;;5136864;27;20215;-63
2022/02/03 11:19:13;;;;;;;19.10;10.32;;;9.00;99.90;;;;;;5136959;27;20253;-64
2022/02/03 11:21:48;;;;;;;18.80;10.52;;;9.10;99.90;;;;;;5136877;27;20803;-63
2022/02/03 11:24:24;;;;;;;20.25;12.32;;;9.20;99.90;;;;;;5136528;27;20234;-65
2022/02/03 11:27:10;;;;;;;12.52;8.18;;;9.20;99.90;;;;;;5136984;27;20371;-64
2022/02/03 11:38:04;;;;;;;13.35;9.80;;;9.30;99.90;;;;;;5136602;27;21120;-64
2022/02/03 11:41:00;;;;;;;16.65;10.68;;;9.30;99.90;;;;;;5136108;27;20230;-64
2022/02/03 11:46:50;;;;;;;15.45;7.93;;;9.40;99.90;;;;;;5136058;27;20233;-64
2022/02/03 11:50:04;;;;;;;15.77;9.77;;;9.40;99.90;;;;;;5136401;27;20369;-64
2022/02/03 11:55:50;;;;;;;12.10;8.25;;;9.40;99.90;;;;;;5124954;27;20214;-64
2022/02/03 11:58:58;;;;;;;11.85;8.48;;;9.40;99.90;;;;;;5136128;27;20242;-64
2022/02/03 12:01:41;;;;;;;8.95;7.75;;;9.30;99.90;;;;;;5135612;27;20232;-64
2022/02/03 12:04:38;;;;;;;13.70;12.30;;;9.30;99.90;;;;;;5135739;27;20218;-64
2022/02/03 12:13:16;;;;;;;17.88;14.23;;;9.20;99.90;;;;;;5135766;27;20237;-63
2022/02/03 12:16:05;;;;;;;12.45;10.73;;;9.20;99.90;;;;;;5135873;27;20613;-64
2022/02/03 12:18:57;;;;;;;16.23;13.23;;;9.20;99.90;;;;;;5135442;27;20234;-64
2022/02/03 12:21:30;;;;;;;12.02;10.82;;;9.30;99.90;;;;;;5135503;27;20245;-64
2022/02/03 12:24:27;;;;;;;12.43;9.63;;;9.30;99.90;;;;;;5135587;27;20253;-64
2022/02/03 12:27:02;;;;;;;9.82;8.60;;;9.40;99.90;;;;;;5135567;27;20221;-64
2022/02/03 12:29:36;;;;;;;7.03;6.32;;;9.40;99.90;;;;;;5135305;27;20228;-64
2022/02/03 12:32:14;;;;;;;10.25;8.10;;;9.40;99.90;;;;;;5135656;27;20230;-64
2022/02/03 12:38:12;;;;;;;7.70;6.95;;;9.50;99.90;;;;;;5071917;28;20308;-64
2022/02/03 12:40:52;;;;;;;7.78;6.47;;;9.50;99.90;;;;;;5070792;28;20228;-64
2022/02/03 12:43:29;;;;;;;8.05;7.18;;;9.50;99.90;;;;;;5118661;27;20361;-64
2022/02/03 12:45:56;;;;;;;10.48;7.43;;;9.60;99.90;;;;;;5134976;27;20968;-64
2022/02/03 12:48:29;;;;;;;10.02;7.90;;;9.60;99.90;;;;;;5135339;27;20219;-64
2022/02/03 12:50:56;;;;;;;9.10;7.78;;;9.60;99.90;;;;;;5134803;27;20226;-64
2022/02/03 12:53:24;;;;;;;11.68;9.30;;;9.50;99.90;;;;;;5135359;27;20249;-65
2022/02/03 12:55:55;;;;;;;15.98;12.90;;;9.60;99.90;;;;;;5134743;27;20214;-64
2022/02/03 12:58:24;;;;;;;14.20;12.15;;;9.60;99.90;;;;;;5135091;27;20226;-63
2022/02/03 13:00:56;;;;;;;12.07;10.77;;;9.60;99.90;;;;;;5125105;27;20226;-64
2022/02/03 13:03:33;;;;;;;12.80;9.23;;;9.60;99.90;;;;;;5131667;27;20225;-63
2022/02/03 13:06:03;;;;;;;10.90;9.80;;;9.70;99.90;;;;;;5134633;27;20891;-64
2022/02/03 13:08:36;;;;;;;18.15;14.15;;;9.70;99.90;;;;;;5134819;27;20223;-64
2022/02/03 13:11:06;;;;;;;10.80;9.55;;;9.70;99.90;;;;;;5126076;27;20223;-64
2022/02/03 13:13:40;;;;;;;11.90;9.82;;;9.70;99.90;;;;;;5114478;27;20280;-64
2022/02/03 13:16:10;;;;;;;13.00;10.23;;;9.70;99.90;;;;;;5113903;27;20685;-63
2022/02/03 13:18:46;;;;;;;12.30;11.10;;;9.70;99.90;;;;;;5114050;27;20222;-63
2022/02/03 13:21:30;;;;;;;25.55;23.15;;;9.80;99.90;;;;;;5118766;27;20939;-65
2022/02/03 13:24:18;;;;;;;20.67;17.60;;;9.70;99.90;;;;;;5134143;27;20313;-64
2022/02/03 13:26:45;;;;;;;13.77;10.52;;;9.80;99.90;;;;;;5134405;27;20621;-64
2022/02/03 13:29:19;;;;;;;13.77;12.40;;;9.80;99.90;;;;;;5134009;27;20732;-64
2022/02/03 13:31:50;;;;;;;12.63;9.68;;;9.70;99.90;;;;;;5124104;27;20276;-65
2022/02/03 13:34:30;;;;;;;8.63;7.72;;;9.70;99.90;;;;;;5122715;27;20211;-64
2022/02/03 13:37:12;;;;;;;9.23;8.18;;;9.80;99.90;;;;;;5128016;27;20221;-65
2022/02/03 13:39:39;;;;;;;6.82;6.22;;;9.80;99.90;;;;;;5138467;27;20275;-65
2022/02/03 13:42:11;;;;;;;8.50;7.70;;;9.80;99.90;;;;;;5125311;27;20218;-65
2022/02/03 13:44:38;;;;;;;9.25;8.23;;;9.80;99.90;;;;;;5120562;27;20222;-65
2022/02/03 13:47:20;;;;;;;12.13;9.20;;;9.80;99.90;;;;;;5129582;27;20222;-65
2022/02/03 13:50:05;;;;;;;13.10;10.88;;;9.80;99.90;;;;;;5132498;27;20222;-65
2022/02/03 13:52:39;;;;;;;9.82;8.93;;;9.80;99.90;;;;;;5127712;27;20270;-65
2022/02/03 14:15:37;;;;;;;16.00;14.00;;;9.80;99.90;;;;;;5133571;27;20226;-66
2022/02/03 14:18:11;;;;;;;13.60;11.98;;;9.90;99.90;;;;;;5130203;27;20303;-66
2022/02/03 14:20:47;;;;;;;10.30;9.30;;;9.80;99.90;;;;;;5112931;27;20222;-66
2022/02/03 14:28:42;;;;;;;7.93;7.03;;;9.90;99.90;;;;;;5131558;27;20225;-66
2022/02/03 14:31:09;;;;;;;10.00;9.00;;;9.90;99.90;;;;;;5128145;27;20275;-66
2022/02/03 14:33:39;;;;;;;10.32;8.15;;;9.90;99.90;;;;;;5131720;27;20656;-66
2022/02/03 14:36:09;;;;;;;8.90;8.00;;;9.90;99.90;;;;;;5131381;27;20271;-66
2022/02/03 14:38:52;;;;;;;8.80;8.10;;;10.00;99.90;;;;;;5126672;27;20241;-66
2022/02/03 14:41:24;;;;;;;9.85;7.63;;;10.00;99.90;;;;;;5114660;27;20223;-66
2022/02/03 14:43:52;;;;;;;11.23;9.50;;;10.00;99.90;;;;;;5130855;27;20227;-65
2022/02/03 14:46:19;;;;;;;9.25;8.35;;;10.00;99.90;;;;;;5123329;27;20287;-66
2022/02/03 14:48:47;;;;;;;8.95;8.15;;;10.10;99.90;;;;;;5131566;27;20568;-65
2022/02/03 14:51:19;;;;;;;10.38;7.65;;;10.10;99.90;;;;;;5132924;27;20229;-65
2022/02/03 14:54:08;;;;;;;10.27;7.32;;;10.10;99.90;;;;;;5114234;27;20551;-65
2022/02/03 14:59:20;;;;;;;8.18;7.40;;;10.10;99.90;;;;;;5132592;27;20617;-65
2022/02/03 15:01:47;;;;;;;8.88;7.95;;;10.20;99.90;;;;;;5127509;27;20222;-66
2022/02/03 15:04:23;;;;;;;10.10;9.10;;;10.10;99.90;;;;;;5131665;27;20223;-66
2022/02/03 15:06:57;;;;;;;11.02;8.23;;;10.10;99.90;;;;;;5124743;27;20217;-66
2022/02/03 15:09:48;;;;;;;10.73;8.60;;;10.10;99.90;;;;;;5120292;27;20261;-65
2022/02/03 15:12:27;;;;;;;11.63;8.80;;;10.10;99.90;;;;;;5118190;27;20225;-66
2022/02/03 15:15:01;;;;;;;11.75;9.07;;;10.10;99.90;;;;;;5125877;27;20218;-65
2022/02/03 15:17:29;;;;;;;9.73;8.40;;;10.10;99.90;;;;;;5120791;27;20222;-65
2022/02/03 15:19:56;;;;;;;11.90;8.70;;;10.10;99.90;;;;;;5129083;27;20222;-65
2022/02/03 15:22:23;;;;;;;8.40;7.60;;;10.10;99.90;;;;;;5138693;27;20282;-65
2022/02/03 15:24:51;;;;;;;7.30;6.68;;;10.10;99.90;;;;;;5145317;27;20215;-65
2022/02/03 15:27:19;;;;;;;8.43;7.63;;;10.10;99.90;;;;;;5121908;27;20231;-65
2022/02/03 15:29:49;;;;;;;7.47;6.78;;;10.10;99.90;;;;;;5121651;27;20560;-65
2022/02/03 15:32:17;;;;;;;9.13;7.70;;;10.20;99.90;;;;;;5134080;27;20223;-66
2022/02/03 15:34:46;;;;;;;9.00;7.60;;;10.20;99.90;;;;;;5135206;27;20265;-65
2022/02/03 15:37:15;;;;;;;13.23;11.52;;;10.20;99.90;;;;;;5126002;27;20227;-66
2022/02/03 15:39:48;;;;;;;8.77;7.97;;;10.20;99.90;;;;;;5140785;27;20714;-65
2022/02/03 15:42:21;;;;;;;8.98;8.05;;;10.20;99.90;;;;;;5129544;27;20219;-65
2022/02/03 15:44:51;;;;;;;7.78;7.07;;;10.20;99.90;;;;;;5133868;27;20232;-65
2022/02/03 15:47:29;;;;;;;9.25;8.18;;;10.20;99.90;;;;;;5132880;27;20568;-65
2022/02/03 15:50:40;;;;;;;9.15;8.35;;;10.20;99.90;;;;;;5132962;27;20282;-66
2022/02/03 16:01:39;;;;;;;9.32;8.43;;;10.20;99.90;;;;;;5121484;27;20620;-65
2022/02/03 16:04:27;;;;;;;11.60;9.05;;;10.20;99.90;;;;;;5133253;27;20238;-66
2022/02/03 16:17:55;;;;;;;11.35;10.35;;;10.20;99.90;;;;;;5124293;27;20230;-66
2022/02/03 16:20:26;;;;;;;9.48;8.40;;;10.20;99.90;;;;;;5127384;27;20657;-65
2022/02/03 16:23:00;;;;;;;10.30;8.95;;;10.20;99.90;;;;;;5122657;27;20310;-65
2022/02/03 16:26:00;;;;;;;10.60;8.48;;;10.20;99.90;;;;;;5116100;27;20238;-65
2022/02/03 16:50:28;;;;;;;10.18;9.18;;;10.40;99.90;;;;;;5132616;27;20294;-65
2022/02/03 16:52:56;;;;;;;10.38;9.45;;;10.40;99.90;;;;;;5131098;27;20210;-65
2022/02/03 16:55:25;;;;;;;11.10;9.95;;;10.40;99.90;;;;;;5130921;27;20223;-65
2022/02/03 16:57:55;;;;;;;11.02;9.73;;;10.40;99.90;;;;;;5124458;27;20333;-65
2022/02/03 17:00:23;;;;;;;10.38;9.35;;;10.40;99.90;;;;;;5130373;27;20230;-65
2022/02/03 17:02:51;;;;;;;12.90;11.38;;;10.50;99.90;;;;;;5128547;27;20242;-65
2022/02/03 17:05:18;;;;;;;15.48;13.40;;;10.50;99.90;;;;;;5119006;27;20237;-65
2022/02/03 17:07:45;;;;;;;15.18;12.75;;;10.50;99.90;;;;;;5131812;27;20277;-65
2022/02/03 17:10:13;;;;;;;13.05;11.70;;;10.50;99.90;;;;;;5130937;27;20684;-65
2022/02/03 17:12:39;;;;;;;12.85;11.68;;;10.50;99.90;;;;;;5134004;27;20221;-65
2022/02/03 17:15:07;;;;;;;12.70;11.40;;;10.50;99.90;;;;;;5129002;27;20219;-65
2022/02/03 17:17:34;;;;;;;15.02;11.00;;;10.50;99.90;;;;;;5130696;27;20222;-65
2022/02/03 17:20:03;;;;;;;14.23;12.82;;;10.50;99.90;;;;;;5122596;27;20243;-65
2022/02/03 17:22:34;;;;;;;17.08;15.30;;;10.50;99.90;;;;;;5123280;27;20996;-65
2022/02/03 17:25:07;;;;;;;17.08;15.25;;;10.50;99.90;;;;;;5122494;27;20238;-66
2022/02/03 17:27:40;;;;;;;17.25;15.43;;;10.50;99.90;;;;;;5124341;27;20226;-66
2022/02/03 17:30:17;;;;;;;20.63;15.00;;;10.50;99.90;;;;;;5121734;27;20227;-66
2022/02/03 18:02:56;;;;;;;25.27;21.98;;;10.50;99.90;;;;;;5129758;27;20221;-64
2022/02/03 18:09:09;;;;;;;12.27;11.07;;;10.40;99.90;;;;;;5068548;28;20216;-66
2022/02/03 18:31:02;;;;;;;19.15;16.80;;;10.40;99.90;;;;;;5106513;27;20210;-65
2022/02/03 18:36:30;;;;;;;13.70;12.10;;;10.50;99.90;;;;;;5126123;27;20245;-65
2022/02/03 18:55:41;;;;;;;25.80;19.90;;;10.50;99.90;;;;;;5125146;27;20653;-66
2022/02/03 18:58:17;;;;;;;18.60;16.65;;;10.50;99.90;;;;;;5135656;27;20220;-66
2022/02/03 19:09:54;;;;;;;19.60;15.35;;;10.50;99.90;;;;;;5101033;28;20630;-67
2022/02/03 19:26:28;;;;;;;17.88;13.35;;;10.50;99.90;;;;;;5132851;27;20264;-66
2022/02/03 20:04:56;;;;;;;14.38;11.25;;;10.40;99.90;;;;;;5127784;27;20215;-65
2022/02/03 20:07:30;;;;;;;17.83;16.00;;;10.40;99.90;;;;;;5126625;27;20249;-65
2022/02/03 20:10:06;;;;;;;18.00;16.15;;;10.40;99.90;;;;;;5133953;27;20667;-65
2022/02/03 20:12:33;;;;;;;15.60;14.00;;;10.50;99.90;;;;;;5131399;27;20214;-65
2022/02/03 20:15:00;;;;;;;15.80;14.00;;;10.50;99.90;;;;;;5123256;27;20241;-66
2022/02/03 20:17:28;;;;;;;13.30;11.30;;;10.40;99.90;;;;;;5132073;27;20279;-66
2022/02/03 20:19:57;;;;;;;13.82;12.30;;;10.40;99.90;;;;;;5129115;27;20608;-66
2022/02/03 20:22:29;;;;;;;15.15;13.60;;;10.40;99.90;;;;;;5123047;27;20214;-65
2022/02/03 20:24:56;;;;;;;15.60;13.90;;;10.40;99.90;;;;;;5129153;27;20230;-66
2022/02/03 20:27:24;;;;;;;13.60;12.20;;;10.30;99.90;;;;;;5123980;27;20805;-65
2022/02/03 20:29:52;;;;;;;14.15;12.70;;;10.30;99.90;;;;;;5123744;27;20271;-66
2022/02/03 20:32:20;;;;;;;15.65;14.02;;;10.30;99.90;;;;;;5127384;27;20226;-67
2022/02/03 20:34:49;;;;;;;22.60;18.02;;;10.30;99.90;;;;;;5132496;27;20702;-66
2022/02/03 20:37:19;;;;;;;18.02;14.30;;;10.40;99.90;;;;;;5124286;27;20222;-65
2022/02/03 20:39:47;;;;;;;19.00;14.20;;;10.40;99.90;;;;;;5132912;27;20219;-65
2022/02/03 20:42:21;;;;;;;16.35;12.50;;;10.40;99.90;;;;;;5129285;27;20211;-65
2022/02/03 20:44:52;;;;;;;19.17;14.88;;;10.40;99.90;;;;;;5123818;27;20268;-66
2022/02/03 20:47:24;;;;;;;17.70;15.15;;;10.40;99.90;;;;;;5125244;27;20684;-66
2022/02/03 20:49:53;;;;;;;17.05;13.70;;;10.50;99.90;;;;;;5126717;27;20238;-67
2022/02/03 20:52:24;;;;;;;13.88;12.48;;;10.50;99.90;;;;;;5123917;27;20304;-65
2022/02/03 20:54:52;;;;;;;16.80;15.02;;;10.40;99.90;;;;;;5124523;27;20207;-67
2022/02/03 20:57:20;;;;;;;23.10;20.25;;;10.40;99.90;;;;;;5126804;27;20231;-66
2022/02/03 20:59:59;;;;;;;30.27;24.70;;;10.40;99.90;;;;;;5123554;27;20302;-67
2022/02/03 21:02:36;;;;;;;29.35;24.73;;;10.30;99.90;;;;;;5129459;27;20242;-66
2022/02/03 21:05:05;;;;;;;25.58;22.73;;;10.40;99.90;;;;;;5129625;27;20300;-66
2022/02/03 21:07:35;;;;;;;21.55;19.20;;;10.40;99.90;;;;;;5127177;27;20229;-66
2022/02/03 21:10:06;;;;;;;19.65;17.50;;;10.40;99.90;;;;;;5128381;27;20235;-65
2022/02/03 21:12:35;;;;;;;18.58;15.00;;;10.40;99.90;;;;;;5123231;27;20247;-65
2022/02/03 21:15:02;;;;;;;16.88;13.90;;;10.40;99.90;;;;;;5126896;27;20222;-66
2022/02/03 21:17:30;;;;;;;16.80;14.70;;;10.40;99.90;;;;;;5130902;27;20311;-65
2022/02/03 21:20:05;;;;;;;14.43;12.80;;;10.40;99.90;;;;;;5127197;27;20218;-66
2022/02/03 21:22:37;;;;;;;15.52;13.52;;;10.40;99.90;;;;;;5127270;27;20623;-66
2022/02/03 21:25:14;;;;;;;13.55;12.10;;;10.40;99.90;;;;;;5130349;27;20229;-66
2022/02/03 21:27:41;;;;;;;20.10;18.00;;;10.40;99.90;;;;;;5120723;27;20210;-66
2022/02/03 21:30:10;;;;;;;21.42;19.30;;;10.40;99.90;;;;;;5119708;27;20314;-66